This is the latest recevied weather packets stored in our database for station/object DJ5CM-10. If no packets are shown the sender has not sent any weather packets the latest 10 day(s).
| Time | Temp. | Humidity | Pressure | Rain* | Wind** | Luminosity | Snow |
|---|---|---|---|---|---|---|---|
| 1778173692 | 20° C | 28% | 1016.7 hPa | - | - | - | - |
| 1778172792 | 20.56° C | 27% | 1016.5 hPa | - | - | - | - |
| 1778171892 | 22.22° C | 25% | 1016.4 hPa | - | - | - | - |
| 1778170992 | 23.33° C | 24% | 1016.4 hPa | - | - | - | - |
| 1778170091 | 25° C | 22% | 1016.5 hPa | - | - | - | - |
| 1778169191 | 27.22° C | 21% | 1016.4 hPa | - | - | - | - |
| 1778168291 | 29.44° C | 20% | 1016.5 hPa | - | - | - | - |
| 1778167391 | 32.78° C | 19% | 1016.3 hPa | - | - | - | - |
| 1778166491 | 36.11° C | 20% | 1016.4 hPa | - | - | - | - |
| 1778165591 | 37.78° C | 22% | 1016.4 hPa | - | - | - | - |
| 1778164691 | 36.11° C | 26% | 1016.4 hPa | - | - | - | - |
| 1778163791 | 34.44° C | 30% | 1016.4 hPa | - | - | - | - |
| 1778162890 | 31.67° C | 36% | 1016.5 hPa | - | - | - | - |
| 1778161990 | 28.89° C | 42% | 1016.5 hPa | - | - | - | - |
| 1778161090 | 25.56° C | 48% | 1016.5 hPa | - | - | - | - |
| 1778160190 | 22.22° C | 50% | 1016.4 hPa | - | - | - | - |
| 1778159290 | 21.67° C | 54% | 1016.3 hPa | - | - | - | - |
| 1778158390 | 16.67° C | 57% | 1016.2 hPa | - | - | - | - |
| 1778157490 | 16.67° C | 58% | 1016.1 hPa | - | - | - | - |
| 1778156590 | 16.11° C | 59% | 1016.1 hPa | - | - | - | - |
| 1778155690 | 15.56° C | 60% | 1016.1 hPa | - | - | - | - |
| 1778154790 | 15.56° C | 62% | 1016 hPa | - | - | - | - |
| 1778153889 | 15° C | 63% | 1016 hPa | - | - | - | - |
| 1778152989 | 15° C | 65% | 1016 hPa | - | - | - | - |
| 1778152089 | 14.44° C | 67% | 1016 hPa | - | - | - | - |
* Rain since midnight (hover to see other rain measurements)
** Current wind speed in m/s (hover to see current wind gust speed)